sensor_id;sensor_type;location;lat;lon;timestamp;P1;durP1;ratioP1;P2;durP2;ratioP2
52320;SDS011;38261;54.090;13.382;2022-08-21T00:01:14;7.63;;;3.30;;
52320;SDS011;38261;54.090;13.382;2022-08-21T00:03:01;6.30;;;3.37;;
52320;SDS011;38261;54.090;13.382;2022-08-21T00:04:23;9.33;;;2.90;;
52320;SDS011;38261;54.090;13.382;2022-08-21T00:05:50;10.47;;;3.40;;
52320;SDS011;38261;54.090;13.382;2022-08-21T00:07:12;9.73;;;2.70;;
52320;SDS011;38261;54.090;13.382;2022-08-21T00:08:34;6.10;;;3.10;;
52320;SDS011;38261;54.090;13.382;2022-08-21T00:09:56;9.17;;;3.40;;
52320;SDS011;38261;54.090;13.382;2022-08-21T00:11:19;6.83;;;3.13;;
52320;SDS011;38261;54.090;13.382;2022-08-21T00:12:41;14.93;;;3.30;;
52320;SDS011;38261;54.090;13.382;2022-08-21T00:14:06;5.00;;;2.70;;
52320;SDS011;38261;54.090;13.382;2022-08-21T00:15:30;9.80;;;3.47;;
52320;SDS011;38261;54.090;13.382;2022-08-21T00:16:53;11.70;;;3.30;;
52320;SDS011;38261;54.090;13.382;2022-08-21T00:18:20;7.70;;;2.93;;
52320;SDS011;38261;54.090;13.382;2022-08-21T00:19:42;6.67;;;2.80;;
52320;SDS011;38261;54.090;13.382;2022-08-21T00:21:04;10.70;;;3.87;;
52320;SDS011;38261;54.090;13.382;2022-08-21T00:22:27;4.73;;;2.80;;
52320;SDS011;38261;54.090;13.382;2022-08-21T00:23:49;9.13;;;2.93;;
52320;SDS011;38261;54.090;13.382;2022-08-21T00:25:11;7.57;;;3.77;;
52320;SDS011;38261;54.090;13.382;2022-08-21T00:26:34;8.20;;;3.17;;
52320;SDS011;38261;54.090;13.382;2022-08-21T00:27:57;11.87;;;2.80;;
52320;SDS011;38261;54.090;13.382;2022-08-21T00:29:19;7.13;;;3.27;;
52320;SDS011;38261;54.090;13.382;2022-08-21T00:30:42;5.13;;;2.57;;
52320;SDS011;38261;54.090;13.382;2022-08-21T00:32:04;6.93;;;2.80;;
52320;SDS011;38261;54.090;13.382;2022-08-21T00:33:26;8.30;;;3.90;;
52320;SDS011;38261;54.090;13.382;2022-08-21T00:34:49;9.17;;;3.00;;
52320;SDS011;38261;54.090;13.382;2022-08-21T00:36:12;6.03;;;2.90;;
52320;SDS011;38261;54.090;13.382;2022-08-21T00:37:34;11.10;;;2.93;;
52320;SDS011;38261;54.090;13.382;2022-08-21T00:38:56;10.53;;;3.50;;
52320;SDS011;38261;54.090;13.382;2022-08-21T00:40:20;6.53;;;2.77;;
52320;SDS011;38261;54.090;13.382;2022-08-21T00:41:45;13.33;;;3.47;;
52320;SDS011;38261;54.090;13.382;2022-08-21T00:43:08;9.63;;;3.07;;
52320;SDS011;38261;54.090;13.382;2022-08-21T00:44:32;7.70;;;2.90;;
52320;SDS011;38261;54.090;13.382;2022-08-21T00:45:55;11.60;;;3.20;;
52320;SDS011;38261;54.090;13.382;2022-08-21T00:47:18;10.93;;;3.10;;
52320;SDS011;38261;54.090;13.382;2022-08-21T00:48:40;8.87;;;3.73;;
52320;SDS011;38261;54.090;13.382;2022-08-21T00:50:04;4.70;;;3.20;;
52320;SDS011;38261;54.090;13.382;2022-08-21T00:53:08;11.90;;;3.00;;
52320;SDS011;38261;54.090;13.382;2022-08-21T00:54:32;7.77;;;3.27;;
52320;SDS011;38261;54.090;13.382;2022-08-21T00:55:55;7.70;;;3.53;;
52320;SDS011;38261;54.090;13.382;2022-08-21T00:57:24;12.40;;;4.13;;
52320;SDS011;38261;54.090;13.382;2022-08-21T00:58:50;6.43;;;3.10;;
52320;SDS011;38261;54.090;13.382;2022-08-21T01:00:16;9.80;;;3.60;;
52320;SDS011;38261;54.090;13.382;2022-08-21T01:01:42;7.70;;;2.80;;
52320;SDS011;38261;54.090;13.382;2022-08-21T01:03:06;8.87;;;2.80;;
52320;SDS011;38261;54.090;13.382;2022-08-21T01:04:31;15.40;;;3.30;;
52320;SDS011;38261;54.090;13.382;2022-08-21T01:05:53;9.40;;;3.47;;
52320;SDS011;38261;54.090;13.382;2022-08-21T01:07:15;5.40;;;2.80;;
52320;SDS011;38261;54.090;13.382;2022-08-21T01:08:40;5.90;;;2.90;;
52320;SDS011;38261;54.090;13.382;2022-08-21T01:10:07;7.00;;;3.30;;
52320;SDS011;38261;54.090;13.382;2022-08-21T01:11:44;13.23;;;3.27;;
52320;SDS011;38261;54.090;13.382;2022-08-21T01:13:07;8.23;;;3.20;;
52320;SDS011;38261;54.090;13.382;2022-08-21T01:14:32;10.50;;;3.00;;
52320;SDS011;38261;54.090;13.382;2022-08-21T01:15:55;11.60;;;3.17;;
52320;SDS011;38261;54.090;13.382;2022-08-21T01:17:20;6.03;;;3.17;;
52320;SDS011;38261;54.090;13.382;2022-08-21T01:18:44;8.77;;;3.10;;
52320;SDS011;38261;54.090;13.382;2022-08-21T01:20:08;8.50;;;3.50;;
52320;SDS011;38261;54.090;13.382;2022-08-21T01:21:32;6.70;;;2.90;;
52320;SDS011;38261;54.090;13.382;2022-08-21T01:22:55;7.43;;;2.87;;
52320;SDS011;38261;54.090;13.382;2022-08-21T01:24:17;11.87;;;3.40;;
52320;SDS011;38261;54.090;13.382;2022-08-21T01:25:39;10.30;;;2.80;;
52320;SDS011;38261;54.090;13.382;2022-08-21T01:27:02;10.20;;;3.30;;
52320;SDS011;38261;54.090;13.382;2022-08-21T01:28:24;6.03;;;2.90;;
52320;SDS011;38261;54.090;13.382;2022-08-21T01:29:51;7.53;;;3.10;;
52320;SDS011;38261;54.090;13.382;2022-08-21T01:31:21;6.53;;;2.90;;
52320;SDS011;38261;54.090;13.382;2022-08-21T01:32:47;10.90;;;3.43;;
52320;SDS011;38261;54.090;13.382;2022-08-21T01:34:10;9.10;;;3.17;;
52320;SDS011;38261;54.090;13.382;2022-08-21T01:35:34;9.63;;;3.40;;
52320;SDS011;38261;54.090;13.382;2022-08-21T01:36:57;7.03;;;3.50;;
52320;SDS011;38261;54.090;13.382;2022-08-21T01:38:19;16.17;;;4.90;;
52320;SDS011;38261;54.090;13.382;2022-08-21T01:39:42;20.43;;;4.30;;
52320;SDS011;38261;54.090;13.382;2022-08-21T01:41:04;10.60;;;3.90;;
52320;SDS011;38261;54.090;13.382;2022-08-21T01:42:26;7.90;;;3.13;;
52320;SDS011;38261;54.090;13.382;2022-08-21T01:43:49;7.97;;;3.27;;
52320;SDS011;38261;54.090;13.382;2022-08-21T01:45:12;6.30;;;4.07;;
52320;SDS011;38261;54.090;13.382;2022-08-21T01:46:35;9.83;;;3.90;;
52320;SDS011;38261;54.090;13.382;2022-08-21T01:47:57;10.00;;;3.87;;
52320;SDS011;38261;54.090;13.382;2022-08-21T01:49:19;13.93;;;4.10;;
52320;SDS011;38261;54.090;13.382;2022-08-21T01:50:42;7.60;;;3.17;;
52320;SDS011;38261;54.090;13.382;2022-08-21T01:52:04;5.97;;;3.77;;
52320;SDS011;38261;54.090;13.382;2022-08-21T01:53:30;13.93;;;4.10;;
52320;SDS011;38261;54.090;13.382;2022-08-21T01:54:54;20.13;;;3.90;;
52320;SDS011;38261;54.090;13.382;2022-08-21T01:56:16;10.77;;;4.13;;
52320;SDS011;38261;54.090;13.382;2022-08-21T01:57:39;14.53;;;4.10;;
52320;SDS011;38261;54.090;13.382;2022-08-21T01:59:02;11.50;;;3.73;;
52320;SDS011;38261;54.090;13.382;2022-08-21T02:00:24;7.20;;;3.40;;
52320;SDS011;38261;54.090;13.382;2022-08-21T02:01:47;18.53;;;4.20;;
52320;SDS011;38261;54.090;13.382;2022-08-21T02:03:09;13.27;;;5.40;;
52320;SDS011;38261;54.090;13.382;2022-08-21T02:04:32;10.97;;;3.80;;
52320;SDS011;38261;54.090;13.382;2022-08-21T02:05:54;8.27;;;3.60;;
52320;SDS011;38261;54.090;13.382;2022-08-21T02:07:16;9.63;;;4.47;;
52320;SDS011;38261;54.090;13.382;2022-08-21T02:08:40;9.53;;;3.70;;
52320;SDS011;38261;54.090;13.382;2022-08-21T02:10:02;11.30;;;4.23;;
52320;SDS011;38261;54.090;13.382;2022-08-21T02:11:25;7.80;;;3.20;;
52320;SDS011;38261;54.090;13.382;2022-08-21T02:12:48;10.13;;;3.73;;
52320;SDS011;38261;54.090;13.382;2022-08-21T02:14:11;8.53;;;4.23;;
52320;SDS011;38261;54.090;13.382;2022-08-21T02:15:50;10.57;;;5.00;;
52320;SDS011;38261;54.090;13.382;2022-08-21T02:17:13;9.20;;;3.93;;
52320;SDS011;38261;54.090;13.382;2022-08-21T02:18:35;16.40;;;3.53;;
52320;SDS011;38261;54.090;13.382;2022-08-21T02:19:57;11.90;;;3.60;;
52320;SDS011;38261;54.090;13.382;2022-08-21T02:21:19;9.20;;;3.70;;
52320;SDS011;38261;54.090;13.382;2022-08-21T02:22:42;6.10;;;3.53;;
52320;SDS011;38261;54.090;13.382;2022-08-21T02:24:04;9.97;;;3.63;;
52320;SDS011;38261;54.090;13.382;2022-08-21T02:25:26;6.87;;;3.23;;
52320;SDS011;38261;54.090;13.382;2022-08-21T02:26:49;9.13;;;3.80;;
52320;SDS011;38261;54.090;13.382;2022-08-21T02:28:12;14.03;;;4.20;;
52320;SDS011;38261;54.090;13.382;2022-08-21T02:29:36;8.67;;;3.33;;
52320;SDS011;38261;54.090;13.382;2022-08-21T02:30:58;9.67;;;4.30;;
52320;SDS011;38261;54.090;13.382;2022-08-21T02:32:20;10.23;;;3.93;;
52320;SDS011;38261;54.090;13.382;2022-08-21T02:33:42;8.80;;;3.70;;
52320;SDS011;38261;54.090;13.382;2022-08-21T02:35:05;17.03;;;3.43;;
52320;SDS011;38261;54.090;13.382;2022-08-21T02:36:27;8.47;;;3.30;;
52320;SDS011;38261;54.090;13.382;2022-08-21T02:37:51;9.77;;;4.20;;
52320;SDS011;38261;54.090;13.382;2022-08-21T02:39:15;10.10;;;3.50;;
52320;SDS011;38261;54.090;13.382;2022-08-21T02:40:48;10.63;;;3.63;;
52320;SDS011;38261;54.090;13.382;2022-08-21T02:42:12;9.60;;;4.17;;
52320;SDS011;38261;54.090;13.382;2022-08-21T02:43:34;8.20;;;3.20;;
52320;SDS011;38261;54.090;13.382;2022-08-21T02:44:57;8.93;;;3.30;;
52320;SDS011;38261;54.090;13.382;2022-08-21T02:46:19;6.57;;;3.63;;
52320;SDS011;38261;54.090;13.382;2022-08-21T02:49:11;7.33;;;3.63;;
52320;SDS011;38261;54.090;13.382;2022-08-21T02:50:35;10.10;;;3.90;;
52320;SDS011;38261;54.090;13.382;2022-08-21T02:52:00;10.03;;;3.70;;
52320;SDS011;38261;54.090;13.382;2022-08-21T02:53:22;7.20;;;3.37;;
52320;SDS011;38261;54.090;13.382;2022-08-21T02:54:46;7.87;;;3.83;;
52320;SDS011;38261;54.090;13.382;2022-08-21T02:56:09;8.50;;;3.50;;
52320;SDS011;38261;54.090;13.382;2022-08-21T02:57:33;7.73;;;3.97;;
52320;SDS011;38261;54.090;13.382;2022-08-21T02:58:55;6.77;;;3.60;;
52320;SDS011;38261;54.090;13.382;2022-08-21T03:00:17;11.03;;;3.20;;
52320;SDS011;38261;54.090;13.382;2022-08-21T03:01:41;6.27;;;2.83;;
52320;SDS011;38261;54.090;13.382;2022-08-21T03:03:04;7.33;;;3.70;;
52320;SDS011;38261;54.090;13.382;2022-08-21T03:04:26;8.40;;;3.30;;
52320;SDS011;38261;54.090;13.382;2022-08-21T03:05:48;8.60;;;3.87;;
52320;SDS011;38261;54.090;13.382;2022-08-21T03:07:11;6.33;;;3.57;;
52320;SDS011;38261;54.090;13.382;2022-08-21T03:08:33;9.30;;;3.90;;
52320;SDS011;38261;54.090;13.382;2022-08-21T03:09:56;5.57;;;3.43;;
52320;SDS011;38261;54.090;13.382;2022-08-21T03:11:18;6.37;;;3.53;;
52320;SDS011;38261;54.090;13.382;2022-08-21T03:12:42;10.67;;;3.63;;
52320;SDS011;38261;54.090;13.382;2022-08-21T03:14:04;10.67;;;3.80;;
52320;SDS011;38261;54.090;13.382;2022-08-21T03:15:26;7.87;;;3.77;;
52320;SDS011;38261;54.090;13.382;2022-08-21T03:16:49;7.10;;;3.83;;
52320;SDS011;38261;54.090;13.382;2022-08-21T03:18:11;6.67;;;3.43;;
52320;SDS011;38261;54.090;13.382;2022-08-21T03:19:33;14.77;;;4.40;;
52320;SDS011;38261;54.090;13.382;2022-08-21T03:20:56;7.37;;;3.40;;
52320;SDS011;38261;54.090;13.382;2022-08-21T03:22:18;9.10;;;3.10;;
52320;SDS011;38261;54.090;13.382;2022-08-21T03:23:40;4.60;;;2.80;;
52320;SDS011;38261;54.090;13.382;2022-08-21T03:25:04;5.87;;;3.53;;
52320;SDS011;38261;54.090;13.382;2022-08-21T03:26:27;9.00;;;3.03;;
52320;SDS011;38261;54.090;13.382;2022-08-21T03:27:49;7.87;;;3.30;;
52320;SDS011;38261;54.090;13.382;2022-08-21T03:29:17;5.17;;;3.40;;
52320;SDS011;38261;54.090;13.382;2022-08-21T03:30:43;10.10;;;3.33;;
52320;SDS011;38261;54.090;13.382;2022-08-21T03:32:06;7.77;;;3.30;;
52320;SDS011;38261;54.090;13.382;2022-08-21T03:33:31;7.10;;;3.00;;
52320;SDS011;38261;54.090;13.382;2022-08-21T03:34:54;7.83;;;2.97;;
52320;SDS011;38261;54.090;13.382;2022-08-21T03:36:16;6.33;;;3.10;;
52320;SDS011;38261;54.090;13.382;2022-08-21T03:37:38;8.07;;;3.07;;
52320;SDS011;38261;54.090;13.382;2022-08-21T03:39:01;11.37;;;3.97;;
52320;SDS011;38261;54.090;13.382;2022-08-21T03:40:24;8.83;;;2.97;;
52320;SDS011;38261;54.090;13.382;2022-08-21T03:41:47;7.17;;;3.03;;
52320;SDS011;38261;54.090;13.382;2022-08-21T03:43:09;16.60;;;3.77;;
52320;SDS011;38261;54.090;13.382;2022-08-21T03:44:31;7.70;;;3.23;;
52320;SDS011;38261;54.090;13.382;2022-08-21T03:45:53;5.67;;;2.50;;
52320;SDS011;38261;54.090;13.382;2022-08-21T03:47:16;5.90;;;3.20;;
52320;SDS011;38261;54.090;13.382;2022-08-21T03:48:39;5.97;;;2.77;;
52320;SDS011;38261;54.090;13.382;2022-08-21T03:50:03;8.13;;;3.07;;
52320;SDS011;38261;54.090;13.382;2022-08-21T03:51:26;9.27;;;3.17;;
52320;SDS011;38261;54.090;13.382;2022-08-21T03:52:48;6.70;;;3.10;;
52320;SDS011;38261;54.090;13.382;2022-08-21T03:54:11;4.77;;;2.97;;
52320;SDS011;38261;54.090;13.382;2022-08-21T03:55:33;5.77;;;2.77;;
52320;SDS011;38261;54.090;13.382;2022-08-21T03:56:55;8.00;;;2.93;;
52320;SDS011;38261;54.090;13.382;2022-08-21T03:58:18;4.17;;;2.57;;
52320;SDS011;38261;54.090;13.382;2022-08-21T03:59:42;4.40;;;2.97;;
52320;SDS011;38261;54.090;13.382;2022-08-21T04:01:05;11.40;;;3.90;;
52320;SDS011;38261;54.090;13.382;2022-08-21T04:02:27;12.90;;;3.30;;
52320;SDS011;38261;54.090;13.382;2022-08-21T04:03:50;17.30;;;3.10;;
52320;SDS011;38261;54.090;13.382;2022-08-21T04:05:12;9.27;;;3.43;;
52320;SDS011;38261;54.090;13.382;2022-08-21T04:06:48;8.37;;;3.00;;
52320;SDS011;38261;54.090;13.382;2022-08-21T04:08:11;11.93;;;3.53;;
52320;SDS011;38261;54.090;13.382;2022-08-21T04:09:34;11.27;;;2.70;;
52320;SDS011;38261;54.090;13.382;2022-08-21T04:10:57;10.90;;;3.63;;
52320;SDS011;38261;54.090;13.382;2022-08-21T04:12:20;10.70;;;3.43;;
52320;SDS011;38261;54.090;13.382;2022-08-21T04:13:42;8.13;;;3.43;;
52320;SDS011;38261;54.090;13.382;2022-08-21T04:15:05;4.47;;;2.73;;
52320;SDS011;38261;54.090;13.382;2022-08-21T04:16:27;9.13;;;2.97;;
52320;SDS011;38261;54.090;13.382;2022-08-21T04:17:50;5.73;;;2.90;;
52320;SDS011;38261;54.090;13.382;2022-08-21T04:19:12;5.93;;;2.70;;
52320;SDS011;38261;54.090;13.382;2022-08-21T04:20:35;10.87;;;3.30;;
52320;SDS011;38261;54.090;13.382;2022-08-21T04:21:57;8.47;;;3.50;;
52320;SDS011;38261;54.090;13.382;2022-08-21T04:23:19;8.23;;;3.20;;
52320;SDS011;38261;54.090;13.382;2022-08-21T04:24:44;9.20;;;3.30;;
52320;SDS011;38261;54.090;13.382;2022-08-21T04:26:07;6.67;;;3.17;;
52320;SDS011;38261;54.090;13.382;2022-08-21T04:27:29;10.30;;;3.03;;
52320;SDS011;38261;54.090;13.382;2022-08-21T04:28:51;7.73;;;2.70;;
52320;SDS011;38261;54.090;13.382;2022-08-21T04:30:14;8.93;;;2.90;;
52320;SDS011;38261;54.090;13.382;2022-08-21T04:31:37;6.57;;;2.73;;
52320;SDS011;38261;54.090;13.382;2022-08-21T04:32:59;7.73;;;2.90;;
52320;SDS011;38261;54.090;13.382;2022-08-21T04:34:22;8.50;;;3.27;;
52320;SDS011;38261;54.090;13.382;2022-08-21T04:35:44;9.03;;;2.90;;
52320;SDS011;38261;54.090;13.382;2022-08-21T04:37:06;5.43;;;2.47;;
52320;SDS011;38261;54.090;13.382;2022-08-21T04:38:28;5.23;;;2.87;;
52320;SDS011;38261;54.090;13.382;2022-08-21T04:39:58;8.53;;;2.50;;
52320;SDS011;38261;54.090;13.382;2022-08-21T04:41:21;4.50;;;2.33;;
52320;SDS011;38261;54.090;13.382;2022-08-21T04:42:50;5.27;;;2.50;;
52320;SDS011;38261;54.090;13.382;2022-08-21T04:44:22;8.87;;;2.37;;
52320;SDS011;38261;54.090;13.382;2022-08-21T04:45:46;7.70;;;3.00;;
52320;SDS011;38261;54.090;13.382;2022-08-21T04:47:09;8.63;;;2.83;;
52320;SDS011;38261;54.090;13.382;2022-08-21T04:48:32;7.50;;;2.13;;
52320;SDS011;38261;54.090;13.382;2022-08-21T04:49:54;8.80;;;2.57;;
52320;SDS011;38261;54.090;13.382;2022-08-21T04:51:20;7.80;;;2.77;;
52320;SDS011;38261;54.090;13.382;2022-08-21T04:52:47;3.20;;;2.13;;
52320;SDS011;38261;54.090;13.382;2022-08-21T04:54:14;6.23;;;2.40;;
52320;SDS011;38261;54.090;13.382;2022-08-21T04:55:40;8.77;;;2.50;;
52320;SDS011;38261;54.090;13.382;2022-08-21T04:57:05;5.57;;;2.43;;
52320;SDS011;38261;54.090;13.382;2022-08-21T04:58:30;5.40;;;2.20;;
52320;SDS011;38261;54.090;13.382;2022-08-21T04:59:54;11.83;;;2.53;;
52320;SDS011;38261;54.090;13.382;2022-08-21T05:01:19;4.63;;;2.20;;
52320;SDS011;38261;54.090;13.382;2022-08-21T05:02:43;3.73;;;2.07;;
52320;SDS011;38261;54.090;13.382;2022-08-21T05:04:05;7.57;;;2.77;;
52320;SDS011;38261;54.090;13.382;2022-08-21T05:05:30;8.20;;;2.80;;
52320;SDS011;38261;54.090;13.382;2022-08-21T05:06:54;9.00;;;2.73;;
52320;SDS011;38261;54.090;13.382;2022-08-21T05:08:19;3.50;;;2.30;;
52320;SDS011;38261;54.090;13.382;2022-08-21T05:09:44;4.60;;;2.13;;
52320;SDS011;38261;54.090;13.382;2022-08-21T05:11:07;3.40;;;2.10;;
52320;SDS011;38261;54.090;13.382;2022-08-21T05:12:30;6.93;;;2.67;;
52320;SDS011;38261;54.090;13.382;2022-08-21T05:13:53;8.50;;;2.90;;
52320;SDS011;38261;54.090;13.382;2022-08-21T05:15:18;4.80;;;1.70;;
52320;SDS011;38261;54.090;13.382;2022-08-21T05:16:40;9.40;;;2.13;;
52320;SDS011;38261;54.090;13.382;2022-08-21T05:18:03;5.33;;;2.07;;
52320;SDS011;38261;54.090;13.382;2022-08-21T05:19:25;4.13;;;2.30;;
52320;SDS011;38261;54.090;13.382;2022-08-21T05:20:47;5.83;;;2.00;;
52320;SDS011;38261;54.090;13.382;2022-08-21T05:22:09;6.07;;;2.50;;
52320;SDS011;38261;54.090;13.382;2022-08-21T05:23:32;6.10;;;2.27;;
52320;SDS011;38261;54.090;13.382;2022-08-21T05:24:54;5.53;;;2.30;;
52320;SDS011;38261;54.090;13.382;2022-08-21T05:26:16;5.53;;;1.90;;
52320;SDS011;38261;54.090;13.382;2022-08-21T05:27:39;10.27;;;2.30;;
52320;SDS011;38261;54.090;13.382;2022-08-21T05:29:03;5.80;;;2.30;;
52320;SDS011;38261;54.090;13.382;2022-08-21T05:30:28;5.40;;;1.80;;
52320;SDS011;38261;54.090;13.382;2022-08-21T05:31:50;5.13;;;2.00;;
52320;SDS011;38261;54.090;13.382;2022-08-21T05:33:12;10.30;;;2.20;;
52320;SDS011;38261;54.090;13.382;2022-08-21T05:34:34;4.70;;;2.50;;
52320;SDS011;38261;54.090;13.382;2022-08-21T05:35:57;6.23;;;1.70;;
52320;SDS011;38261;54.090;13.382;2022-08-21T05:37:19;3.87;;;2.00;;
52320;SDS011;38261;54.090;13.382;2022-08-21T05:38:41;5.60;;;1.90;;
52320;SDS011;38261;54.090;13.382;2022-08-21T05:40:05;6.03;;;2.03;;
52320;SDS011;38261;54.090;13.382;2022-08-21T05:41:42;14.43;;;2.70;;
52320;SDS011;38261;54.090;13.382;2022-08-21T05:43:04;12.20;;;2.10;;
52320;SDS011;38261;54.090;13.382;2022-08-21T05:44:27;10.50;;;2.50;;
52320;SDS011;38261;54.090;13.382;2022-08-21T05:45:49;6.07;;;1.90;;
52320;SDS011;38261;54.090;13.382;2022-08-21T05:47:11;5.00;;;2.23;;
52320;SDS011;38261;54.090;13.382;2022-08-21T05:48:33;8.27;;;2.10;;
52320;SDS011;38261;54.090;13.382;2022-08-21T05:49:56;6.47;;;2.20;;
52320;SDS011;38261;54.090;13.382;2022-08-21T05:51:18;6.77;;;2.00;;
52320;SDS011;38261;54.090;13.382;2022-08-21T05:52:41;6.03;;;2.20;;
52320;SDS011;38261;54.090;13.382;2022-08-21T05:54:03;8.00;;;1.77;;
52320;SDS011;38261;54.090;13.382;2022-08-21T05:55:25;4.30;;;2.07;;
52320;SDS011;38261;54.090;13.382;2022-08-21T05:56:54;10.23;;;2.70;;
52320;SDS011;38261;54.090;13.382;2022-08-21T05:58:18;7.27;;;1.97;;
52320;SDS011;38261;54.090;13.382;2022-08-21T05:59:41;5.87;;;1.87;;
52320;SDS011;38261;54.090;13.382;2022-08-21T06:01:03;8.30;;;2.20;;
52320;SDS011;38261;54.090;13.382;2022-08-21T06:02:26;5.00;;;2.07;;
52320;SDS011;38261;54.090;13.382;2022-08-21T06:03:49;8.10;;;2.27;;
52320;SDS011;38261;54.090;13.382;2022-08-21T06:05:11;5.03;;;1.87;;
52320;SDS011;38261;54.090;13.382;2022-08-21T06:06:37;4.17;;;1.60;;
52320;SDS011;38261;54.090;13.382;2022-08-21T06:07:59;7.47;;;1.60;;
52320;SDS011;38261;54.090;13.382;2022-08-21T06:09:21;3.10;;;1.70;;
52320;SDS011;38261;54.090;13.382;2022-08-21T06:10:44;10.03;;;1.77;;
52320;SDS011;38261;54.090;13.382;2022-08-21T06:12:07;5.57;;;1.77;;
52320;SDS011;38261;54.090;13.382;2022-08-21T06:13:32;4.23;;;1.60;;
52320;SDS011;38261;54.090;13.382;2022-08-21T06:14:55;3.67;;;1.60;;
52320;SDS011;38261;54.090;13.382;2022-08-21T06:16:17;3.43;;;1.90;;
52320;SDS011;38261;54.090;13.382;2022-08-21T06:17:39;5.77;;;1.67;;
52320;SDS011;38261;54.090;13.382;2022-08-21T06:19:01;5.40;;;1.43;;
52320;SDS011;38261;54.090;13.382;2022-08-21T06:20:23;8.40;;;1.60;;
52320;SDS011;38261;54.090;13.382;2022-08-21T06:21:45;4.90;;;1.50;;
52320;SDS011;38261;54.090;13.382;2022-08-21T06:23:08;8.00;;;1.90;;
52320;SDS011;38261;54.090;13.382;2022-08-21T06:24:30;2.53;;;1.47;;
52320;SDS011;38261;54.090;13.382;2022-08-21T06:25:52;8.40;;;1.93;;
52320;SDS011;38261;54.090;13.382;2022-08-21T06:27:16;8.23;;;1.80;;
52320;SDS011;38261;54.090;13.382;2022-08-21T06:28:42;5.53;;;1.70;;
52320;SDS011;38261;54.090;13.382;2022-08-21T06:30:05;4.13;;;1.37;;
52320;SDS011;38261;54.090;13.382;2022-08-21T06:31:28;5.03;;;1.70;;
52320;SDS011;38261;54.090;13.382;2022-08-21T06:32:50;6.17;;;1.47;;
52320;SDS011;38261;54.090;13.382;2022-08-21T06:34:12;5.63;;;1.93;;
52320;SDS011;38261;54.090;13.382;2022-08-21T06:35:35;3.63;;;1.30;;
52320;SDS011;38261;54.090;13.382;2022-08-21T06:37:02;3.03;;;1.40;;
52320;SDS011;38261;54.090;13.382;2022-08-21T06:38:24;5.47;;;1.40;;
52320;SDS011;38261;54.090;13.382;2022-08-21T06:39:47;4.30;;;1.20;;
52320;SDS011;38261;54.090;13.382;2022-08-21T06:41:10;5.23;;;1.53;;
52320;SDS011;38261;54.090;13.382;2022-08-21T06:42:32;9.00;;;2.10;;
52320;SDS011;38261;54.090;13.382;2022-08-21T06:43:55;7.50;;;1.50;;
52320;SDS011;38261;54.090;13.382;2022-08-21T06:45:18;2.30;;;1.13;;
52320;SDS011;38261;54.090;13.382;2022-08-21T06:46:40;6.70;;;1.60;;
52320;SDS011;38261;54.090;13.382;2022-08-21T06:48:06;3.20;;;1.33;;
52320;SDS011;38261;54.090;13.382;2022-08-21T06:49:29;5.60;;;1.17;;
52320;SDS011;38261;54.090;13.382;2022-08-21T06:50:51;3.23;;;1.43;;
52320;SDS011;38261;54.090;13.382;2022-08-21T06:52:13;2.33;;;1.30;;
52320;SDS011;38261;54.090;13.382;2022-08-21T06:53:35;6.87;;;1.37;;
52320;SDS011;38261;54.090;13.382;2022-08-21T06:54:58;7.27;;;1.20;;
52320;SDS011;38261;54.090;13.382;2022-08-21T06:56:20;3.60;;;1.60;;
52320;SDS011;38261;54.090;13.382;2022-08-21T06:57:42;3.13;;;1.30;;
52320;SDS011;38261;54.090;13.382;2022-08-21T06:59:13;6.30;;;1.40;;
52320;SDS011;38261;54.090;13.382;2022-08-21T07:00:36;2.60;;;1.40;;
52320;SDS011;38261;54.090;13.382;2022-08-21T07:02:01;3.60;;;1.10;;
52320;SDS011;38261;54.090;13.382;2022-08-21T07:03:26;3.43;;;1.50;;
52320;SDS011;38261;54.090;13.382;2022-08-21T07:04:50;4.33;;;1.10;;
52320;SDS011;38261;54.090;13.382;2022-08-21T07:06:12;5.17;;;1.37;;
52320;SDS011;38261;54.090;13.382;2022-08-21T07:07:35;6.10;;;1.53;;
52320;SDS011;38261;54.090;13.382;2022-08-21T07:08:57;7.80;;;1.37;;
52320;SDS011;38261;54.090;13.382;2022-08-21T07:10:19;4.90;;;1.67;;
52320;SDS011;38261;54.090;13.382;2022-08-21T07:11:44;6.60;;;1.57;;
52320;SDS011;38261;54.090;13.382;2022-08-21T07:14:32;9.83;;;1.50;;
52320;SDS011;38261;54.090;13.382;2022-08-21T07:15:54;7.37;;;1.33;;
52320;SDS011;38261;54.090;13.382;2022-08-21T07:17:23;6.53;;;1.20;;
52320;SDS011;38261;54.090;13.382;2022-08-21T07:18:46;6.73;;;1.57;;
52320;SDS011;38261;54.090;13.382;2022-08-21T07:20:08;4.10;;;1.60;;
52320;SDS011;38261;54.090;13.382;2022-08-21T07:21:30;2.87;;;1.10;;
52320;SDS011;38261;54.090;13.382;2022-08-21T07:22:52;4.47;;;1.60;;
52320;SDS011;38261;54.090;13.382;2022-08-21T07:24:15;4.47;;;1.50;;
52320;SDS011;38261;54.090;13.382;2022-08-21T07:25:38;2.60;;;1.67;;
52320;SDS011;38261;54.090;13.382;2022-08-21T07:27:00;6.40;;;1.50;;
52320;SDS011;38261;54.090;13.382;2022-08-21T07:28:22;5.87;;;1.40;;
52320;SDS011;38261;54.090;13.382;2022-08-21T07:29:45;3.67;;;1.50;;
52320;SDS011;38261;54.090;13.382;2022-08-21T07:31:08;4.97;;;1.20;;
52320;SDS011;38261;54.090;13.382;2022-08-21T07:32:31;3.33;;;1.10;;
52320;SDS011;38261;54.090;13.382;2022-08-21T07:33:56;5.40;;;1.30;;
52320;SDS011;38261;54.090;13.382;2022-08-21T07:35:19;4.00;;;1.20;;
52320;SDS011;38261;54.090;13.382;2022-08-21T07:36:41;5.13;;;1.60;;
52320;SDS011;38261;54.090;13.382;2022-08-21T07:38:04;3.33;;;1.43;;
52320;SDS011;38261;54.090;13.382;2022-08-21T07:39:26;3.73;;;1.50;;
52320;SDS011;38261;54.090;13.382;2022-08-21T07:40:48;7.20;;;1.80;;
52320;SDS011;38261;54.090;13.382;2022-08-21T07:42:15;6.60;;;1.30;;
52320;SDS011;38261;54.090;13.382;2022-08-21T07:43:37;5.37;;;1.97;;
52320;SDS011;38261;54.090;13.382;2022-08-21T07:45:06;4.13;;;1.20;;
52320;SDS011;38261;54.090;13.382;2022-08-21T07:46:29;4.70;;;1.37;;
52320;SDS011;38261;54.090;13.382;2022-08-21T07:47:51;4.03;;;1.40;;
52320;SDS011;38261;54.090;13.382;2022-08-21T07:49:18;5.23;;;1.37;;
52320;SDS011;38261;54.090;13.382;2022-08-21T07:50:40;5.17;;;1.40;;
52320;SDS011;38261;54.090;13.382;2022-08-21T07:52:04;7.60;;;1.20;;
52320;SDS011;38261;54.090;13.382;2022-08-21T07:53:26;7.03;;;1.87;;
52320;SDS011;38261;54.090;13.382;2022-08-21T07:54:48;9.87;;;2.07;;
52320;SDS011;38261;54.090;13.382;2022-08-21T07:56:10;10.10;;;1.97;;
52320;SDS011;38261;54.090;13.382;2022-08-21T07:57:33;6.03;;;1.40;;
52320;SDS011;38261;54.090;13.382;2022-08-21T07:58:55;6.23;;;1.37;;
52320;SDS011;38261;54.090;13.382;2022-08-21T08:00:19;4.37;;;1.40;;
52320;SDS011;38261;54.090;13.382;2022-08-21T08:01:45;3.83;;;1.13;;
52320;SDS011;38261;54.090;13.382;2022-08-21T08:03:08;7.33;;;1.53;;
52320;SDS011;38261;54.090;13.382;2022-08-21T08:04:30;7.33;;;1.80;;
52320;SDS011;38261;54.090;13.382;2022-08-21T08:05:53;3.00;;;1.23;;
52320;SDS011;38261;54.090;13.382;2022-08-21T08:07:15;3.47;;;1.30;;
52320;SDS011;38261;54.090;13.382;2022-08-21T08:08:39;2.60;;;1.13;;
52320;SDS011;38261;54.090;13.382;2022-08-21T08:10:03;7.33;;;1.23;;
52320;SDS011;38261;54.090;13.382;2022-08-21T08:11:26;5.93;;;1.50;;
52320;SDS011;38261;54.090;13.382;2022-08-21T08:12:51;3.37;;;1.37;;
52320;SDS011;38261;54.090;13.382;2022-08-21T08:14:13;4.10;;;1.20;;
52320;SDS011;38261;54.090;13.382;2022-08-21T08:15:37;8.10;;;1.30;;
52320;SDS011;38261;54.090;13.382;2022-08-21T08:16:59;2.50;;;1.33;;
52320;SDS011;38261;54.090;13.382;2022-08-21T08:18:22;10.90;;;1.60;;